Time;durP1;ratioP1;P1;durP2;ratioP2;P2;SDS_P1;SDS_P2;PMS_P1;PMS_P2;Temp;Humidity;BMP_temperature;BMP_pressure;BME280_temperature;BME280_humidity;BME280_pressure;Samples;Min_cycle;Max_cycle;Signal;HPM_P1;HPM_P2
2023/09/24 00:03:12;;;;;;;4.35;3.95;;;11.50;99.90;;;;;;10050390;29;20321;-91
2023/09/24 00:08:15;;;;;;;10.48;7.45;;;11.70;99.90;;;;;;10050386;29;20301;-91
2023/09/24 00:13:21;;;;;;;10.00;6.07;;;11.80;99.90;;;;;;10052810;29;20796;-91
2023/09/24 00:18:25;;;;;;;9.05;6.65;;;11.40;99.90;;;;;;10059287;29;20668;-92
2023/09/24 00:23:30;;;;;;;7.30;6.57;;;11.50;99.90;;;;;;10056880;29;20298;-91
2023/09/24 00:28:33;;;;;;;6.22;5.38;;;11.50;99.90;;;;;;10057296;29;20245;-92
2023/09/24 00:33:36;;;;;;;6.05;5.53;;;11.50;99.90;;;;;;10058185;29;20256;-92
2023/09/24 00:38:39;;;;;;;8.52;6.50;;;11.50;99.90;;;;;;10056700;29;20234;-90
2023/09/24 00:43:43;;;;;;;7.03;6.32;;;11.40;99.90;;;;;;10058365;29;20253;-91
2023/09/24 00:48:46;;;;;;;5.75;5.25;;;11.20;99.90;;;;;;10056533;29;20238;-90
2023/09/24 00:53:52;;;;;;;6.00;5.47;;;11.30;99.90;;;;;;10009897;29;20266;-91
2023/09/24 00:58:55;;;;;;;7.03;5.90;;;11.40;99.90;;;;;;10017882;29;20246;-91
2023/09/24 01:03:58;;;;;;;6.97;6.28;;;11.20;99.90;;;;;;10037598;29;20241;-92
2023/09/24 01:09:03;;;;;;;3.05;2.75;;;11.30;99.90;;;;;;10041979;29;20317;-91
2023/09/24 01:14:07;;;;;;;8.50;6.05;;;11.60;99.90;;;;;;10055962;29;20253;-92
2023/09/24 01:19:10;;;;;;;6.53;5.82;;;11.40;99.90;;;;;;10038284;29;20241;-91
2023/09/24 01:24:13;;;;;;;5.95;5.35;;;11.20;99.90;;;;;;10055530;29;20313;-91
2023/09/24 01:29:16;;;;;;;6.75;6.05;;;11.00;99.90;;;;;;10055125;29;20624;-91
2023/09/24 01:34:19;;;;;;;3.15;2.75;;;10.90;99.90;;;;;;10056429;29;20716;-91
2023/09/24 01:39:26;;;;;;;4.43;3.88;;;11.30;99.90;;;;;;10053957;29;20245;-91
2023/09/24 01:44:32;;;;;;;6.68;6.07;;;11.80;99.90;;;;;;10054944;29;20332;-91
2023/09/24 01:49:35;;;;;;;6.07;5.50;;;11.40;99.90;;;;;;10039688;29;20241;-90
2023/09/24 01:54:38;;;;;;;7.03;6.20;;;11.10;99.90;;;;;;10053293;29;20265;-90
2023/09/24 01:59:42;;;;;;;6.32;5.45;;;11.00;99.90;;;;;;10016365;29;20268;-90
2023/09/24 02:04:44;;;;;;;6.07;5.47;;;10.90;99.90;;;;;;10037963;29;20237;-91
2023/09/24 02:09:47;;;;;;;5.78;5.00;;;10.70;99.90;;;;;;10038107;29;20289;-90
2023/09/24 02:14:50;;;;;;;2.75;2.50;;;10.60;99.90;;;;;;10054515;29;20314;-90
2023/09/24 02:19:55;;;;;;;5.57;5.03;;;10.80;99.90;;;;;;10055111;29;20829;-90
2023/09/24 02:24:58;;;;;;;4.97;4.30;;;11.00;99.90;;;;;;10053089;29;20317;-91
2023/09/24 02:30:01;;;;;;;5.35;4.90;;;10.70;99.90;;;;;;10053806;29;20237;-90
2023/09/24 02:35:04;;;;;;;5.07;4.55;;;10.60;99.90;;;;;;10052956;29;20210;-91
2023/09/24 02:40:27;;;;;;;5.35;4.05;;;10.50;99.90;;;;;;10053603;29;20237;-90
2023/09/24 02:45:30;;;;;;;3.88;3.58;;;10.40;99.90;;;;;;10054250;29;20237;-90
2023/09/24 02:50:33;;;;;;;5.18;4.53;;;10.40;99.90;;;;;;10051750;29;20310;-90
2023/09/24 02:55:37;;;;;;;4.40;4.00;;;10.60;99.90;;;;;;10053450;29;20594;-91
2023/09/24 03:00:42;;;;;;;4.43;3.88;;;10.80;99.90;;;;;;10053735;29;20325;-90
2023/09/24 03:05:45;;;;;;;8.32;4.70;;;11.10;99.90;;;;;;10053213;29;20236;-91
2023/09/24 03:10:48;;;;;;;4.70;4.30;;;10.70;99.90;;;;;;10052035;29;20329;-91
2023/09/24 03:15:51;;;;;;;3.78;3.05;;;10.50;99.90;;;;;;10051095;29;20245;-91
2023/09/24 03:20:55;;;;;;;4.88;4.40;;;10.60;99.90;;;;;;10051933;29;20269;-91
2023/09/24 03:25:58;;;;;;;3.92;3.63;;;10.50;99.90;;;;;;10035969;29;20245;-90
2023/09/24 03:31:00;;;;;;;5.18;4.20;;;10.10;99.90;;;;;;10052099;29;20269;-90
2023/09/24 03:36:05;;;;;;;5.75;4.25;;;10.30;99.90;;;;;;10035886;29;20285;-90
2023/09/24 03:41:08;;;;;;;5.15;4.75;;;10.10;99.90;;;;;;10051508;29;20297;-90
2023/09/24 03:46:11;;;;;;;4.53;4.13;;;10.00;99.90;;;;;;10052330;29;20681;-91
2023/09/24 03:51:15;;;;;;;4.82;4.05;;;10.00;99.90;;;;;;10050018;29;20327;-90
2023/09/24 03:56:17;;;;;;;9.20;3.80;;;10.00;99.90;;;;;;10050844;29;20870;-90
2023/09/24 04:01:20;;;;;;;5.78;4.07;;;10.30;99.90;;;;;;10050647;29;20602;-90
2023/09/24 04:06:23;;;;;;;4.28;3.92;;;10.40;99.90;;;;;;10051394;29;20931;-90
2023/09/24 04:11:27;;;;;;;7.07;3.90;;;10.30;99.90;;;;;;10049806;29;20725;-91
2023/09/24 04:16:30;;;;;;;5.95;4.35;;;10.30;99.90;;;;;;10052112;29;20249;-90
2023/09/24 04:21:33;;;;;;;3.75;3.45;;;10.10;99.90;;;;;;10050763;29;20329;-91
2023/09/24 04:26:36;;;;;;;3.97;3.53;;;10.00;99.90;;;;;;10050221;29;20248;-91
2023/09/24 04:31:39;;;;;;;5.28;4.60;;;10.60;99.90;;;;;;10051570;29;20297;-91
2023/09/24 04:36:42;;;;;;;4.32;4.00;;;11.10;99.90;;;;;;10049477;29;20273;-92
2023/09/24 04:41:47;;;;;;;4.32;2.33;;;10.40;99.90;;;;;;10051663;29;20251;-91
2023/09/24 04:46:51;;;;;;;2.55;2.35;;;10.80;99.90;;;;;;10050218;29;20285;-92
2023/09/24 04:51:55;;;;;;;5.55;3.35;;;11.00;99.90;;;;;;10045063;29;20318;-94
2023/09/24 04:56:57;;;;;;;7.10;4.05;;;11.30;99.90;;;;;;10020091;29;20241;-94
2023/09/24 05:02:00;;;;;;;4.82;4.13;;;11.20;99.90;;;;;;10055640;29;20249;-93
2023/09/24 05:07:03;;;;;;;4.40;3.95;;;10.70;99.90;;;;;;10056064;29;20249;-93
2023/09/24 05:12:15;;;;;;;2.08;1.90;;;10.40;99.90;;;;;;10056531;29;20659;-93
2023/09/24 05:17:22;;;;;;;3.05;2.75;;;10.90;99.90;;;;;;10055692;29;20747;-93
2023/09/24 05:22:27;;;;;;;2.97;2.72;;;11.60;99.90;;;;;;10055538;29;20718;-93
2023/09/24 05:27:32;;;;;;;3.80;3.40;;;12.10;99.90;;;;;;10057434;29;20237;-92
2023/09/24 05:32:35;;;;;;;2.42;1.95;;;12.30;99.90;;;;;;10054378;29;20666;-89
2023/09/24 05:37:39;;;;;;;3.63;3.20;;;12.50;99.90;;;;;;10056285;29;20638;-90
2023/09/24 05:42:42;;;;;;;3.95;3.30;;;12.50;99.90;;;;;;10056072;29;20249;-91
2023/09/24 05:47:45;;;;;;;3.03;2.53;;;12.10;99.90;;;;;;10055285;29;20672;-91
2023/09/24 05:52:48;;;;;;;2.83;2.63;;;12.40;99.90;;;;;;10055195;29;20330;-91
2023/09/24 05:57:51;;;;;;;5.05;3.80;;;12.10;99.90;;;;;;10039400;29;20241;-91
2023/09/24 06:02:54;;;;;;;2.97;2.67;;;12.10;99.90;;;;;;10054078;29;20534;-91
2023/09/24 06:07:57;;;;;;;3.33;3.08;;;12.70;99.90;;;;;;10054381;29;20306;-90
2023/09/24 06:13:00;;;;;;;2.90;2.70;;;13.30;99.90;;;;;;10051342;29;20265;-91
2023/09/24 06:18:03;;;;;;;1.83;1.73;;;13.40;99.90;;;;;;10046053;29;20245;-91
2023/09/24 06:23:07;;;;;;;4.30;3.90;;;13.40;99.90;;;;;;10054776;29;20273;-90
2023/09/24 06:28:09;;;;;;;3.83;3.20;;;13.70;99.90;;;;;;10053994;29;20274;-91
2023/09/24 06:33:12;;;;;;;7.38;4.25;;;13.70;99.90;;;;;;10054416;29;20317;-91
2023/09/24 06:38:15;;;;;;;3.60;3.30;;;13.30;99.90;;;;;;10054253;29;20229;-90
2023/09/24 06:43:17;;;;;;;3.83;3.53;;;13.90;99.90;;;;;;10052694;29;20660;-91
2023/09/24 06:48:21;;;;;;;1.70;1.60;;;14.40;99.90;;;;;;10052505;29;20249;-91
2023/09/24 06:53:24;;;;;;;3.15;2.95;;;14.80;99.90;;;;;;10052576;29;20245;-91
2023/09/24 06:58:26;;;;;;;4.10;3.40;;;15.20;99.90;;;;;;10052005;29;20246;-89
2023/09/24 07:03:29;;;;;;;4.03;3.40;;;15.50;99.90;;;;;;10050815;29;20241;-90
2023/09/24 07:08:35;;;;;;;4.80;4.22;;;15.60;99.90;;;;;;10051045;29;20302;-91
2023/09/24 07:13:38;;;;;;;6.25;4.05;;;15.50;99.90;;;;;;10052206;29;20817;-91
2023/09/24 07:18:41;;;;;;;3.53;2.22;;;15.80;99.90;;;;;;10053167;29;20238;-91
2023/09/24 07:23:45;;;;;;;4.00;3.47;;;16.00;99.90;;;;;;10049666;29;20273;-91
2023/09/24 07:28:48;;;;;;;2.70;2.22;;;16.10;99.90;;;;;;10046764;29;20234;-91
2023/09/24 07:33:55;;;;;;;5.10;3.35;;;16.30;99.90;;;;;;10033763;29;20721;-92
2023/09/24 07:38:58;;;;;;;2.85;2.05;;;17.00;99.90;;;;;;10037815;29;20233;-90
2023/09/24 07:44:04;;;;;;;5.30;4.15;;;17.20;99.90;;;;;;10044902;29;20297;-91
2023/09/24 07:49:14;;;;;;;3.38;3.08;;;17.40;99.90;;;;;;10034170;29;20305;-91
2023/09/24 07:54:17;;;;;;;1.70;1.60;;;17.50;99.90;;;;;;10037902;29;20269;-91
2023/09/24 07:59:20;;;;;;;2.70;2.50;;;17.80;99.90;;;;;;10029783;29;20225;-91
2023/09/24 08:04:23;;;;;;;2.97;2.67;;;18.20;99.90;;;;;;10031355;29;20237;-91
2023/09/24 08:09:25;;;;;;;3.78;3.13;;;18.00;98.40;;;;;;10050220;29;20282;-90
2023/09/24 08:14:29;;;;;;;3.47;3.17;;;18.10;98.60;;;;;;10050110;29;20321;-91
2023/09/24 08:19:32;;;;;;;4.10;3.67;;;17.90;97.90;;;;;;10040590;29;20237;-91
2023/09/24 08:24:36;;;;;;;5.60;4.32;;;17.60;97.30;;;;;;10049439;29;20344;-89
2023/09/24 08:29:39;;;;;;;2.42;2.10;;;17.50;97.40;;;;;;10051406;29;20241;-89
2023/09/24 08:34:42;;;;;;;2.95;2.67;;;17.40;98.90;;;;;;10054180;29;20551;-89
2023/09/24 08:39:44;;;;;;;4.75;4.20;;;17.90;99.70;;;;;;10051887;29;20241;-91
2023/09/24 08:45:09;;;;;;;7.85;3.83;;;17.90;96.00;;;;;;10054431;29;20242;-90
2023/09/24 08:50:14;;;;;;;4.22;2.90;;;17.90;95.90;;;;;;10019967;29;20630;-89
2023/09/24 08:55:16;;;;;;;3.88;2.95;;;17.80;97.40;;;;;;10019955;29;20329;-89
2023/09/24 09:00:19;;;;;;;1.27;1.15;;;18.10;96.60;;;;;;10048810;29;20226;-89
2023/09/24 09:05:23;;;;;;;4.32;1.75;;;18.40;99.30;;;;;;10018367;29;20310;-89
2023/09/24 09:10:27;;;;;;;2.97;2.30;;;18.90;97.60;;;;;;10018959;29;20310;-89
2023/09/24 09:15:30;;;;;;;1.45;1.30;;;19.00;94.40;;;;;;10019388;29;20326;-89
2023/09/24 09:20:48;;;;;;;5.57;3.28;;;19.30;96.10;;;;;;10031961;29;20281;-89
2023/09/24 09:25:53;;;;;;;2.90;2.33;;;19.50;91.00;;;;;;10057000;29;20252;-89
2023/09/24 09:31:04;;;;;;;2.80;1.92;;;19.20;91.20;;;;;;10055703;29;20249;-89
2023/09/24 09:36:27;;;;;;;4.63;2.75;;;19.00;92.80;;;;;;10056897;29;20714;-89
2023/09/24 09:41:33;;;;;;;3.58;2.80;;;18.90;92.30;;;;;;10055293;29;20234;-90
2023/09/24 09:46:39;;;;;;;3.25;1.90;;;18.70;90.50;;;;;;10055229;29;20245;-89
2023/09/24 09:51:47;;;;;;;3.55;2.33;;;19.10;94.10;;;;;;10054155;29;20678;-89
2023/09/24 09:56:51;;;;;;;5.03;1.80;;;19.40;91.30;;;;;;10041378;29;20698;-89
2023/09/24 10:01:54;;;;;;;2.28;1.30;;;19.80;93.90;;;;;;10054835;29;20237;-91
2023/09/24 10:06:57;;;;;;;1.55;1.17;;;20.50;91.80;;;;;;10053014;29;20233;-91
2023/09/24 10:12:06;;;;;;;1.55;1.45;;;20.80;91.00;;;;;;10053152;29;20757;-89
2023/09/24 10:17:25;;;;;;;2.72;2.20;;;20.70;84.30;;;;;;10051178;29;20858;-91
2023/09/24 10:22:34;;;;;;;4.57;1.70;;;20.70;80.30;;;;;;10051013;29;20265;-91
2023/09/24 10:28:00;;;;;;;3.28;1.65;;;20.70;83.90;;;;;;10049987;29;20285;-88
2023/09/24 10:33:10;;;;;;;5.80;1.70;;;20.20;73.50;;;;;;10050924;29;20694;-87
2023/09/24 10:38:13;;;;;;;3.15;1.85;;;19.70;73.30;;;;;;10051692;29;20301;-87
2023/09/24 10:43:18;;;;;;;1.75;1.52;;;19.60;75.50;;;;;;10050575;29;20253;-87
2023/09/24 10:48:21;;;;;;;3.63;1.80;;;19.80;78.10;;;;;;10053109;29;20229;-87
2023/09/24 10:53:37;;;;;;;1.45;1.27;;;20.20;70.90;;;;;;10049631;29;20777;-88
2023/09/24 10:58:48;;;;;;;1.88;1.60;;;20.40;66.60;;;;;;10051838;29;20230;-89
2023/09/24 11:03:51;;;;;;;1.80;1.50;;;20.40;64.60;;;;;;10050395;29;20305;-89
2023/09/24 11:08:54;;;;;;;2.65;1.40;;;20.30;67.30;;;;;;10052199;29;20411;-89
2023/09/24 11:13:57;;;;;;;4.75;1.80;;;20.00;68.40;;;;;;10050868;29;20261;-89
2023/09/24 11:18:59;;;;;;;1.10;1.00;;;20.00;66.30;;;;;;10051941;29;20266;-89
2023/09/24 11:24:23;;;;;;;2.97;1.50;;;20.10;68.30;;;;;;10051515;29;20657;-89
2023/09/24 11:29:26;;;;;;;1.90;1.10;;;19.80;66.40;;;;;;10050905;29;20229;-89
2023/09/24 11:34:29;;;;;;;1.02;0.90;;;19.90;65.90;;;;;;10051407;29;20246;-89
2023/09/24 11:39:43;;;;;;;2.10;1.05;;;20.20;69.60;;;;;;10049760;29;20262;-88
2023/09/24 11:44:46;;;;;;;2.05;1.20;;;20.50;68.80;;;;;;10048628;29;20233;-89
2023/09/24 11:49:49;;;;;;;2.70;1.20;;;20.80;64.30;;;;;;10050875;29;20286;-90
2023/09/24 11:54:52;;;;;;;1.45;1.35;;;20.80;66.00;;;;;;10050158;29;20309;-89
2023/09/24 11:59:54;;;;;;;2.20;1.70;;;20.60;58.00;;;;;;10050360;29;20229;-89
2023/09/24 12:04:57;;;;;;;1.52;1.38;;;20.50;55.00;;;;;;10049384;29;20233;-89
2023/09/24 12:10:02;;;;;;;2.05;1.15;;;20.70;56.00;;;;;;10054162;29;20337;-90
2023/09/24 12:15:07;;;;;;;1.52;1.20;;;20.80;62.70;;;;;;10057308;29;20256;-90
2023/09/24 12:20:11;;;;;;;2.90;1.55;;;20.90;62.80;;;;;;10055300;29;20233;-89
2023/09/24 12:25:14;;;;;;;1.60;1.17;;;21.10;61.80;;;;;;10077036;29;20260;-89
2023/09/24 12:30:16;;;;;;;1.00;0.90;;;21.30;58.20;;;;;;10076221;29;20232;-89
2023/09/24 12:35:19;;;;;;;3.08;1.13;;;21.20;58.00;;;;;;10074211;29;20660;-89
2023/09/24 12:40:23;;;;;;;1.40;1.10;;;21.00;56.60;;;;;;10079377;29;20245;-89
2023/09/24 12:45:25;;;;;;;2.40;1.67;;;21.00;56.60;;;;;;10085656;29;20226;-90
2023/09/24 12:50:53;;;;;;;1.27;1.10;;;20.80;54.50;;;;;;10075493;29;20313;-90
2023/09/24 12:55:56;;;;;;;2.50;1.10;;;20.80;59.20;;;;;;10075114;29;21018;-91
2023/09/24 13:00:58;;;;;;;1.73;0.95;;;20.60;54.50;;;;;;10062389;29;20237;-91
2023/09/24 13:06:01;;;;;;;2.25;0.90;;;20.90;60.30;;;;;;10055899;29;20252;-90
2023/09/24 13:11:04;;;;;;;1.73;1.15;;;21.20;60.10;;;;;;10057371;29;20309;-90
2023/09/24 13:16:06;;;;;;;1.58;1.20;;;21.30;59.80;;;;;;10055496;29;20265;-90
2023/09/24 13:21:09;;;;;;;2.70;0.70;;;21.50;53.00;;;;;;10056121;29;20265;-88
2023/09/24 13:26:12;;;;;;;1.98;1.00;;;21.40;54.00;;;;;;10056830;29;20655;-90
2023/09/24 13:31:14;;;;;;;1.23;0.75;;;21.20;51.60;;;;;;10055517;29;20241;-93
2023/09/24 13:36:17;;;;;;;1.00;0.73;;;21.10;52.00;;;;;;10056141;29;20257;-90
2023/09/24 13:41:20;;;;;;;1.05;0.95;;;21.00;54.00;;;;;;10054878;29;20318;-91
2023/09/24 13:46:23;;;;;;;1.20;1.10;;;20.80;53.30;;;;;;10054632;29;20297;-91
2023/09/24 13:51:26;;;;;;;2.00;1.50;;;20.60;55.40;;;;;;10055668;29;20245;-92
2023/09/24 13:56:29;;;;;;;1.35;1.10;;;20.40;55.00;;;;;;10054312;29;20321;-90
2023/09/24 14:01:32;;;;;;;2.17;0.95;;;20.10;52.40;;;;;;10054519;29;20282;-93
2023/09/24 14:06:35;;;;;;;0.90;0.90;;;20.10;59.10;;;;;;10054357;29;20689;-92
2023/09/24 14:16:59;;;;;;;1.50;1.20;;;19.80;63.60;;;;;;10055136;29;20264;-93
2023/09/24 14:22:01;;;;;;;3.70;1.40;;;19.70;68.80;;;;;;10054693;29;20261;-92
2023/09/24 14:27:04;;;;;;;1.95;1.40;;;19.70;67.20;;;;;;10038105;29;20696;-93
2023/09/24 14:32:07;;;;;;;2.97;1.50;;;19.70;72.90;;;;;;10052477;29;20249;-93
2023/09/24 14:37:10;;;;;;;3.22;1.30;;;19.70;68.50;;;;;;10050632;29;20317;-93
2023/09/24 14:42:13;;;;;;;1.95;1.20;;;19.70;63.90;;;;;;10038023;29;20241;-92
2023/09/24 14:47:16;;;;;;;1.63;1.42;;;19.70;70.80;;;;;;10054732;29;20250;-92
2023/09/24 14:52:18;;;;;;;1.65;1.23;;;19.60;65.70;;;;;;10053215;29;20229;-92
2023/09/24 14:57:21;;;;;;;2.92;1.58;;;19.60;62.80;;;;;;10053230;29;20671;-93
2023/09/24 15:02:24;;;;;;;1.38;0.93;;;19.60;64.50;;;;;;10052713;29;20277;-93
2023/09/24 15:07:26;;;;;;;3.33;0.82;;;19.60;68.10;;;;;;10053886;29;20237;-93
2023/09/24 15:12:29;;;;;;;1.23;0.88;;;19.60;70.80;;;;;;10053758;29;20700;-92
2023/09/24 15:17:32;;;;;;;0.63;0.52;;;19.60;71.30;;;;;;10053945;29;20318;-92
2023/09/24 15:22:34;;;;;;;1.60;1.02;;;19.50;68.10;;;;;;10051531;29;20269;-92
2023/09/24 15:27:37;;;;;;;1.00;0.88;;;19.50;72.80;;;;;;10052053;29;20293;-93
2023/09/24 15:32:39;;;;;;;2.72;1.08;;;19.60;70.20;;;;;;10051359;29;20229;-93
2023/09/24 15:37:42;;;;;;;0.80;0.80;;;19.50;73.40;;;;;;10052361;29;20249;-92
2023/09/24 15:42:45;;;;;;;1.00;0.90;;;19.70;81.30;;;;;;10050998;29;20233;-92
2023/09/24 15:47:47;;;;;;;2.67;1.27;;;19.60;79.50;;;;;;10052762;29;20257;-92
2023/09/24 15:52:50;;;;;;;1.00;0.90;;;19.40;71.90;;;;;;10050238;29;20305;-92
2023/09/24 15:57:53;;;;;;;5.07;1.23;;;19.40;79.60;;;;;;10050645;29;20253;-93
2023/09/24 16:02:56;;;;;;;1.55;1.33;;;19.40;80.70;;;;;;10050727;29;20277;-91
2023/09/24 16:07:59;;;;;;;2.22;1.27;;;19.20;79.00;;;;;;10052605;29;20684;-90
2023/09/24 16:13:01;;;;;;;1.45;1.35;;;19.10;77.00;;;;;;10047951;29;20265;-92
2023/09/24 16:18:04;;;;;;;2.83;1.73;;;18.90;78.20;;;;;;10035294;29;20922;-89
2023/09/24 16:29:28;;;;;;;3.75;1.35;;;18.40;79.30;;;;;;10047353;29;20214;-89
2023/09/24 16:34:34;;;;;;;2.60;1.80;;;17.70;90.20;;;;;;10051830;29;20706;-89
2023/09/24 16:39:37;;;;;;;2.10;1.90;;;17.40;91.60;;;;;;10047235;29;20229;-90
2023/09/24 16:44:39;;;;;;;7.68;3.67;;;16.90;95.90;;;;;;10047106;29;20962;-89
2023/09/24 16:49:42;;;;;;;3.15;2.33;;;16.40;96.60;;;;;;9712062;29;10000327;-90
2023/09/24 16:54:45;;;;;;;7.22;2.70;;;;;;;;;;10048480;29;20266;-90
2023/09/24 16:59:48;;;;;;;8.05;2.83;;;15.90;99.90;;;;;;10053805;29;20297;-90
2023/09/24 17:04:51;;;;;;;3.33;1.63;;;15.40;99.90;;;;;;10055514;29;20302;-89
2023/09/24 17:09:54;;;;;;;3.97;2.67;;;15.50;99.90;;;;;;10052766;29;20241;-90
2023/09/24 17:14:57;;;;;;;4.65;2.92;;;15.50;99.90;;;;;;10051771;29;20320;-89
2023/09/24 17:20:01;;;;;;;11.38;3.92;;;15.20;99.90;;;;;;10059338;29;20300;-90
2023/09/24 17:25:04;;;;;;;2.28;2.00;;;14.80;99.90;;;;;;10051891;29;20253;-89
2023/09/24 17:30:08;;;;;;;4.38;3.50;;;14.80;99.90;;;;;;10039585;29;20240;-90
2023/09/24 17:35:10;;;;;;;6.55;3.38;;;14.70;99.90;;;;;;10051000;29;20366;-90
2023/09/24 17:40:13;;;;;;;4.55;3.67;;;14.40;99.90;;;;;;10050060;29;20249;-90
2023/09/24 17:45:16;;;;;;;6.35;4.75;;;14.10;99.90;;;;;;10051687;29;20253;-89
2023/09/24 17:50:18;;;;;;;5.43;3.13;;;13.80;99.90;;;;;;10052559;29;20245;-89
2023/09/24 17:55:22;;;;;;;7.90;3.95;;;14.00;99.90;;;;;;10074793;29;20252;-89
2023/09/24 18:00:25;;;;;;;2.88;2.28;;;14.20;99.90;;;;;;10052623;29;20809;-89
2023/09/24 18:05:35;;;;;;;4.00;2.72;;;14.20;99.90;;;;;;10066854;29;20277;-89
2023/09/24 18:10:38;;;;;;;5.63;3.22;;;14.30;99.90;;;;;;10051310;29;20711;-89
2023/09/24 18:15:40;;;;;;;3.67;2.97;;;13.90;99.90;;;;;;10051159;29;20313;-89
2023/09/24 18:26:39;;;;;;;7.35;2.72;;;13.50;99.90;;;;;;10042680;29;21007;-90
2023/09/24 18:31:42;;;;;;;7.60;3.17;;;13.30;99.90;;;;;;10055070;29;20701;-89
2023/09/24 18:36:45;;;;;;;4.57;3.25;;;13.20;99.90;;;;;;10090371;29;20269;-89
2023/09/24 18:41:48;;;;;;;4.68;3.00;;;13.00;99.90;;;;;;10074019;29;20241;-89
2023/09/24 18:46:53;;;;;;;6.95;3.67;;;12.90;99.90;;;;;;10088555;29;20707;-89
2023/09/24 18:51:56;;;;;;;5.50;3.67;;;12.60;99.90;;;;;;10082587;29;20241;-89
2023/09/24 18:57:02;;;;;;;6.45;3.42;;;12.40;99.90;;;;;;10087829;29;20377;-88
2023/09/24 19:02:06;;;;;;;4.72;3.80;;;12.50;99.90;;;;;;10039725;29;20239;-89
2023/09/24 19:07:11;;;;;;;3.30;2.55;;;12.30;99.90;;;;;;10049528;29;20245;-89
2023/09/24 19:12:13;;;;;;;3.25;2.67;;;12.30;99.90;;;;;;10058114;29;21014;-90
2023/09/24 19:18:08;;;;;;;6.18;4.63;;;12.40;99.90;;;;;;10086659;29;20323;-89
2023/09/24 19:23:11;;;;;;;10.50;4.65;;;12.40;99.90;;;;;;10097769;29;20335;-90
2023/09/24 19:28:13;;;;;;;6.18;4.63;;;12.00;99.90;;;;;;10128575;29;20244;-89
2023/09/24 19:33:18;;;;;;;6.63;4.72;;;11.70;99.90;;;;;;10129104;29;20268;-89
2023/09/24 19:38:24;;;;;;;3.65;3.35;;;11.80;99.90;;;;;;10094894;29;20308;-89
2023/09/24 19:43:27;;;;;;;4.32;3.70;;;12.00;99.90;;;;;;10110305;29;20661;-88
2023/09/24 19:48:31;;;;;;;8.00;4.90;;;12.20;99.90;;;;;;10111380;29;20267;-91
2023/09/24 19:53:36;;;;;;;8.95;4.85;;;12.00;99.90;;;;;;10119164;29;20231;-90
2023/09/24 19:58:39;;;;;;;5.88;4.03;;;11.80;99.90;;;;;;10091378;29;20256;-91
2023/09/24 20:03:42;;;;;;;5.85;4.72;;;11.80;99.90;;;;;;10122074;29;20263;-88
2023/09/24 20:08:50;;;;;;;3.35;2.83;;;11.80;99.90;;;;;;10122471;29;20264;-88
2023/09/24 20:14:00;;;;;;;5.50;4.22;;;11.70;99.90;;;;;;10113248;29;20233;-88
2023/09/24 20:19:07;;;;;;;6.00;4.35;;;12.00;99.90;;;;;;10142798;29;20231;-89
2023/09/24 20:24:10;;;;;;;4.57;3.78;;;11.60;99.90;;;;;;10114686;29;20264;-90
2023/09/24 20:29:13;;;;;;;5.13;4.28;;;11.50;99.90;;;;;;10127857;29;20243;-90
2023/09/24 20:34:21;;;;;;;4.55;3.88;;;11.40;99.90;;;;;;10132546;29;20204;-90
2023/09/24 20:39:24;;;;;;;7.43;4.38;;;11.40;99.90;;;;;;10128231;29;20217;-90
2023/09/24 20:44:31;;;;;;;5.43;4.05;;;11.30;99.90;;;;;;10124284;29;20233;-90
2023/09/24 20:49:34;;;;;;;6.47;4.25;;;11.40;99.90;;;;;;10139182;29;20208;-91
2023/09/24 20:54:37;;;;;;;5.13;4.13;;;11.00;99.90;;;;;;10137128;29;20237;-90
2023/09/24 20:59:57;;;;;;;3.20;2.90;;;11.00;99.90;;;;;;10115841;29;20204;-91
2023/09/24 21:04:59;;;;;;;5.45;4.03;;;11.00;99.90;;;;;;10122732;29;20261;-89
2023/09/24 21:10:04;;;;;;;6.55;4.03;;;11.00;99.90;;;;;;10137698;29;20587;-92
2023/09/24 21:15:09;;;;;;;6.80;4.20;;;10.80;99.90;;;;;;10119062;29;20596;-91
2023/09/24 21:20:13;;;;;;;3.72;3.05;;;10.70;99.90;;;;;;10121961;29;20208;-92
2023/09/24 21:25:16;;;;;;;3.33;3.00;;;10.80;99.90;;;;;;10114351;29;20288;-92
2023/09/24 21:30:19;;;;;;;4.22;3.17;;;10.90;99.90;;;;;;10139872;29;20268;-91
2023/09/24 21:35:23;;;;;;;4.10;3.15;;;11.00;99.90;;;;;;10137767;29;20264;-92
2023/09/24 21:40:26;;;;;;;6.68;3.45;;;11.10;99.90;;;;;;10136761;29;20201;-93
2023/09/24 21:45:28;;;;;;;5.28;3.65;;;11.10;99.90;;;;;;10138053;29;20620;-91
2023/09/24 21:50:31;;;;;;;4.38;3.20;;;11.10;99.90;;;;;;10099773;29;20209;-92
2023/09/24 21:55:34;;;;;;;5.18;3.88;;;11.10;99.90;;;;;;10129727;29;20256;-92
2023/09/24 22:00:37;;;;;;;8.23;4.28;;;11.00;99.90;;;;;;10124533;29;20205;-92
2023/09/24 22:05:41;;;;;;;7.50;3.50;;;10.90;99.90;;;;;;10125818;29;20208;-92
2023/09/24 22:10:45;;;;;;;6.15;3.20;;;11.00;99.90;;;;;;10139100;29;20256;-93
2023/09/24 22:15:48;;;;;;;5.47;3.28;;;11.10;99.90;;;;;;10115870;29;20228;-93
2023/09/24 22:20:51;;;;;;;3.45;3.05;;;11.20;99.90;;;;;;10136687;29;20216;-93
2023/09/24 22:25:57;;;;;;;3.40;3.10;;;11.10;99.90;;;;;;10140101;29;20578;-92
2023/09/24 22:31:05;;;;;;;3.45;3.15;;;10.90;99.90;;;;;;10090544;29;20220;-91
2023/09/24 22:36:17;;;;;;;5.53;2.65;;;10.90;99.90;;;;;;10155445;29;20305;-92
2023/09/24 22:41:20;;;;;;;3.63;3.10;;;10.80;99.90;;;;;;10133701;29;20232;-92
2023/09/24 22:46:24;;;;;;;4.57;3.28;;;10.80;99.90;;;;;;10165586;29;20565;-93
2023/09/24 22:51:27;;;;;;;4.18;3.03;;;10.80;99.90;;;;;;10165769;29;20188;-93
2023/09/24 22:56:29;;;;;;;4.50;3.70;;;11.10;99.90;;;;;;10181381;29;20264;-92
2023/09/24 23:01:32;;;;;;;4.22;3.67;;;10.70;99.90;;;;;;10150609;29;20209;-93
2023/09/24 23:06:35;;;;;;;2.75;2.55;;;10.60;99.90;;;;;;10166722;29;20201;-92
2023/09/24 23:11:38;;;;;;;5.20;3.88;;;10.80;99.90;;;;;;10181576;29;20188;-92
2023/09/24 23:16:41;;;;;;;4.20;3.20;;;10.50;99.90;;;;;;10165956;29;20224;-92
2023/09/24 23:21:43;;;;;;;4.28;3.53;;;10.50;99.90;;;;;;10181255;29;20200;-93
2023/09/24 23:26:46;;;;;;;3.83;3.28;;;10.40;99.90;;;;;;10140059;29;20188;-92
2023/09/24 23:31:50;;;;;;;4.40;2.75;;;10.40;99.90;;;;;;10166009;29;20403;-92
2023/09/24 23:36:53;;;;;;;2.78;2.42;;;10.80;99.90;;;;;;10182258;29;20249;-91
2023/09/24 23:41:56;;;;;;;4.35;2.72;;;10.80;99.90;;;;;;10165479;29;20225;-91
2023/09/24 23:46:59;;;;;;;4.65;2.78;;;10.50;99.90;;;;;;10166133;29;20208;-92
2023/09/24 23:52:02;;;;;;;2.50;2.28;;;10.40;99.90;;;;;;10166005;29;20201;-93
2023/09/24 23:57:05;;;;;;;3.78;3.00;;;10.40;99.90;;;;;;10163989;29;20378;-93
